Little Swan, Minnesota
Current Conditions -  °F | °C
As of 9:53 PM on Wednesday 22 Oct 2014 (Local Time) from KHIB Reporting Station
Scattered Clouds Scattered Clouds  
Wind Chill: 51°   Ceiling: Unl
Heat Index: 51°   Visibility: 10mi
Dew Point: 37°   Wind: 7mph
Humidity: 59%   Direction: 160°SSE
Pressure: 30"   Gusts: NA
Location:  47.4158°N, 93.0053°W
Report Text: KHIB 230253Z AUTO 16006KT 10SM SCT049 11/03 A3000 RMK AO2 SLP170 T01060028 58001
Loading
Personal Weather Stations






























Interactive Weather Map
Tropical Storm Tracking
New forecast layout! Learn more

10-Day Weather Forecast

Advertisements
Track Severe Weather on mobile